Portada
METAR-TAF:

METAR-TAF

Aeroports :

Aeroport Internacional de Xangai-Hongqiao

Xangai-Hongqiao, Xina

latitud: 31-10N, longitud: 121-26E, altitud: 7 m

Observació

L'informe es va fer fa 30 minuts, a les 03:30 UTC
Vent 4 kt amb direcció variable
Temperatura 29°C
Humitat 66%
Pressió 1002 hPa
Visibilitat 10 km o més
Cel ennuvolat a una alçada de 2600 ft

METAR: ZSSS 270330Z VRB02MPS 9999 BKN026 29/22 Q1002 NOSIG

Hora: 12:00 (04:00 UTC)

Pronòstic

L'informe es va fer fa 8 hores i 36 minuts, a les 19:24 UTC
Pronòstic vàlid del 27 a les 00 UTC al 27 a les 24 UTC
Vent 6 kt del Est/Sud-Est
Visibilitat: 5000 m
Cel ennuvolat a una alçada de 1500 ft
boirina

TAF: ZSSS 261924Z 2700/2724 12003MPS 5000 BR BKN015 TX30/2706Z TN23/2721Z

Observacions i pronòstics meteorològics de més de 4000 aeroports (METAR i TAF).

Les estacions disponibles són els punts grocs i vermells al mapa.

Posi el ratolí al punt desitjat per veure el nom de l'estació.

Feu clic per veure les observacions i els pronòstics meteorològics.

Per canviar el mapa: feu clic els botons verds amb una creu de color negre per apropar; al botó verd amb un guió per allunyar la imatge; o en les fletxes verdes per a mapes adjacents.


METAR-TAF: